sensor_id;sensor_type;location;lat;lon;timestamp;pressure;altitude;pressure_sealevel;temperature;humidity
60832;BME280;46665;51.558;-0.448;2023-07-20T00:00:25;101154.72;;;15.78;100.00
60832;BME280;46665;51.558;-0.448;2023-07-20T00:02:51;101163.56;;;15.75;100.00
60832;BME280;46665;51.558;-0.448;2023-07-20T00:05:17;101161.09;;;15.74;100.00
60832;BME280;46665;51.558;-0.448;2023-07-20T00:07:47;101156.53;;;15.69;100.00
60832;BME280;46665;51.558;-0.448;2023-07-20T00:10:12;101153.31;;;15.62;100.00
60832;BME280;46665;51.558;-0.448;2023-07-20T00:12:38;101161.06;;;15.60;100.00
60832;BME280;46665;51.558;-0.448;2023-07-20T00:15:03;101159.50;;;15.54;100.00
60832;BME280;46665;51.558;-0.448;2023-07-20T00:17:29;101163.16;;;15.49;100.00
60832;BME280;46665;51.558;-0.448;2023-07-20T00:19:54;101162.66;;;15.47;100.00
60832;BME280;46665;51.558;-0.448;2023-07-20T00:22:20;101161.81;;;15.47;100.00
60832;BME280;46665;51.558;-0.448;2023-07-20T00:24:45;101158.38;;;15.41;100.00
60832;BME280;46665;51.558;-0.448;2023-07-20T00:27:10;101153.28;;;15.34;100.00
60832;BME280;46665;51.558;-0.448;2023-07-20T00:29:36;101155.81;;;15.31;100.00
60832;BME280;46665;51.558;-0.448;2023-07-20T00:32:01;101158.03;;;15.29;100.00
60832;BME280;46665;51.558;-0.448;2023-07-20T00:34:30;101153.06;;;15.31;100.00
60832;BME280;46665;51.558;-0.448;2023-07-20T00:36:55;101166.25;;;15.29;100.00
60832;BME280;46665;51.558;-0.448;2023-07-20T00:39:21;101162.50;;;15.25;100.00
60832;BME280;46665;51.558;-0.448;2023-07-20T00:41:46;101154.28;;;15.25;100.00
60832;BME280;46665;51.558;-0.448;2023-07-20T00:44:11;101155.69;;;15.22;100.00
60832;BME280;46665;51.558;-0.448;2023-07-20T00:46:37;101156.19;;;15.24;100.00
60832;BME280;46665;51.558;-0.448;2023-07-20T00:49:03;101168.50;;;15.27;100.00
60832;BME280;46665;51.558;-0.448;2023-07-20T00:51:29;101165.69;;;15.32;100.00
60832;BME280;46665;51.558;-0.448;2023-07-20T00:53:54;101162.09;;;15.31;100.00
60832;BME280;46665;51.558;-0.448;2023-07-20T00:56:21;101159.25;;;15.36;100.00
60832;BME280;46665;51.558;-0.448;2023-07-20T00:58:47;101160.50;;;15.44;100.00
60832;BME280;46665;51.558;-0.448;2023-07-20T01:01:12;101155.25;;;15.48;100.00
60832;BME280;46665;51.558;-0.448;2023-07-20T01:03:39;101158.19;;;15.51;100.00
60832;BME280;46665;51.558;-0.448;2023-07-20T01:09:01;101149.06;;;15.56;100.00
60832;BME280;46665;51.558;-0.448;2023-07-20T01:14:11;101141.53;;;15.48;100.00
60832;BME280;46665;51.558;-0.448;2023-07-20T01:16:37;101137.47;;;15.45;100.00
60832;BME280;46665;51.558;-0.448;2023-07-20T01:19:02;101135.34;;;15.42;100.00
60832;BME280;46665;51.558;-0.448;2023-07-20T01:21:36;101137.25;;;15.42;100.00
60832;BME280;46665;51.558;-0.448;2023-07-20T01:30:06;101147.31;;;15.13;100.00
60832;BME280;46665;51.558;-0.448;2023-07-20T01:32:34;101143.34;;;15.06;100.00
60832;BME280;46665;51.558;-0.448;2023-07-20T01:35:01;101142.59;;;15.00;100.00
60832;BME280;46665;51.558;-0.448;2023-07-20T01:37:29;101153.72;;;14.90;100.00
60832;BME280;46665;51.558;-0.448;2023-07-20T01:39:55;101160.63;;;14.87;100.00
60832;BME280;46665;51.558;-0.448;2023-07-20T01:42:22;101153.38;;;14.78;100.00
60832;BME280;46665;51.558;-0.448;2023-07-20T01:44:51;101153.22;;;14.69;100.00
60832;BME280;46665;51.558;-0.448;2023-07-20T01:47:17;101143.22;;;14.59;100.00
60832;BME280;46665;51.558;-0.448;2023-07-20T01:49:43;101143.00;;;14.56;100.00
60832;BME280;46665;51.558;-0.448;2023-07-20T01:52:08;101146.28;;;14.52;100.00
60832;BME280;46665;51.558;-0.448;2023-07-20T01:54:34;101146.38;;;14.47;100.00
60832;BME280;46665;51.558;-0.448;2023-07-20T01:56:59;101145.84;;;14.45;100.00
60832;BME280;46665;51.558;-0.448;2023-07-20T01:59:24;101140.50;;;14.35;100.00
60832;BME280;46665;51.558;-0.448;2023-07-20T02:01:50;101138.16;;;14.28;100.00
60832;BME280;46665;51.558;-0.448;2023-07-20T02:04:15;101141.97;;;14.27;100.00
60832;BME280;46665;51.558;-0.448;2023-07-20T02:06:41;101136.34;;;14.19;100.00
60832;BME280;46665;51.558;-0.448;2023-07-20T02:09:07;101132.81;;;14.18;100.00
60832;BME280;46665;51.558;-0.448;2023-07-20T02:11:33;101142.41;;;14.16;100.00
60832;BME280;46665;51.558;-0.448;2023-07-20T02:13:58;101134.22;;;14.16;100.00
60832;BME280;46665;51.558;-0.448;2023-07-20T02:16:23;101132.09;;;14.07;100.00
60832;BME280;46665;51.558;-0.448;2023-07-20T02:18:49;101138.97;;;14.05;100.00
60832;BME280;46665;51.558;-0.448;2023-07-20T02:21:14;101135.16;;;14.06;100.00
60832;BME280;46665;51.558;-0.448;2023-07-20T02:23:39;101134.34;;;14.05;100.00
60832;BME280;46665;51.558;-0.448;2023-07-20T02:26:05;101132.75;;;13.99;100.00
60832;BME280;46665;51.558;-0.448;2023-07-20T02:28:30;101133.34;;;13.96;100.00
60832;BME280;46665;51.558;-0.448;2023-07-20T02:30:56;101119.50;;;13.87;100.00
60832;BME280;46665;51.558;-0.448;2023-07-20T02:33:21;101122.00;;;13.84;100.00
60832;BME280;46665;51.558;-0.448;2023-07-20T02:35:46;101122.31;;;13.82;100.00
60832;BME280;46665;51.558;-0.448;2023-07-20T02:38:12;101127.47;;;13.84;100.00
60832;BME280;46665;51.558;-0.448;2023-07-20T02:40:37;101124.50;;;13.80;100.00
60832;BME280;46665;51.558;-0.448;2023-07-20T02:43:03;101129.97;;;13.80;100.00
60832;BME280;46665;51.558;-0.448;2023-07-20T02:45:29;101132.53;;;13.72;100.00
60832;BME280;46665;51.558;-0.448;2023-07-20T02:47:54;101127.91;;;13.67;100.00
60832;BME280;46665;51.558;-0.448;2023-07-20T02:50:19;101126.13;;;13.57;100.00
60832;BME280;46665;51.558;-0.448;2023-07-20T02:52:45;101127.28;;;13.51;100.00
60832;BME280;46665;51.558;-0.448;2023-07-20T02:55:10;101125.97;;;13.43;100.00
60832;BME280;46665;51.558;-0.448;2023-07-20T02:57:36;101136.16;;;13.38;100.00
60832;BME280;46665;51.558;-0.448;2023-07-20T03:00:03;101134.28;;;13.33;100.00
60832;BME280;46665;51.558;-0.448;2023-07-20T03:02:30;101135.94;;;13.34;100.00
60832;BME280;46665;51.558;-0.448;2023-07-20T03:04:56;101126.03;;;13.38;100.00
60832;BME280;46665;51.558;-0.448;2023-07-20T03:07:22;101126.75;;;13.49;100.00
60832;BME280;46665;51.558;-0.448;2023-07-20T03:09:48;101136.00;;;13.53;100.00
60832;BME280;46665;51.558;-0.448;2023-07-20T03:12:13;101130.25;;;13.55;100.00
60832;BME280;46665;51.558;-0.448;2023-07-20T03:14:39;101133.44;;;13.62;100.00
60832;BME280;46665;51.558;-0.448;2023-07-20T03:17:04;101125.25;;;13.62;100.00
60832;BME280;46665;51.558;-0.448;2023-07-20T03:19:30;101134.56;;;13.61;100.00
60832;BME280;46665;51.558;-0.448;2023-07-20T03:21:55;101126.13;;;13.57;100.00
60832;BME280;46665;51.558;-0.448;2023-07-20T03:24:20;101133.28;;;13.53;100.00
60832;BME280;46665;51.558;-0.448;2023-07-20T03:26:46;101123.72;;;13.51;100.00
60832;BME280;46665;51.558;-0.448;2023-07-20T03:29:13;101130.00;;;13.51;100.00
60832;BME280;46665;51.558;-0.448;2023-07-20T03:31:38;101127.31;;;13.46;100.00
60832;BME280;46665;51.558;-0.448;2023-07-20T03:34:04;101131.81;;;13.37;100.00
60832;BME280;46665;51.558;-0.448;2023-07-20T03:36:30;101132.72;;;13.22;100.00
60832;BME280;46665;51.558;-0.448;2023-07-20T03:38:56;101124.78;;;13.20;100.00
60832;BME280;46665;51.558;-0.448;2023-07-20T03:41:22;101134.66;;;13.16;100.00
60832;BME280;46665;51.558;-0.448;2023-07-20T03:43:47;101134.97;;;13.15;100.00
60832;BME280;46665;51.558;-0.448;2023-07-20T03:46:12;101129.78;;;13.13;100.00
60832;BME280;46665;51.558;-0.448;2023-07-20T03:48:38;101129.50;;;13.15;100.00
60832;BME280;46665;51.558;-0.448;2023-07-20T03:51:03;101130.03;;;13.17;100.00
60832;BME280;46665;51.558;-0.448;2023-07-20T03:53:29;101130.84;;;13.17;100.00
60832;BME280;46665;51.558;-0.448;2023-07-20T03:55:54;101127.00;;;13.18;100.00
60832;BME280;46665;51.558;-0.448;2023-07-20T03:58:20;101125.97;;;13.14;100.00
60832;BME280;46665;51.558;-0.448;2023-07-20T04:00:48;101129.72;;;13.18;100.00
60832;BME280;46665;51.558;-0.448;2023-07-20T04:03:14;101122.59;;;13.22;100.00
60832;BME280;46665;51.558;-0.448;2023-07-20T04:05:39;101124.75;;;13.26;100.00
60832;BME280;46665;51.558;-0.448;2023-07-20T04:08:05;101122.81;;;13.26;100.00
60832;BME280;46665;51.558;-0.448;2023-07-20T04:10:30;101119.06;;;13.22;100.00
60832;BME280;46665;51.558;-0.448;2023-07-20T04:12:56;101121.78;;;13.22;100.00
60832;BME280;46665;51.558;-0.448;2023-07-20T04:15:21;101118.56;;;13.15;100.00
60832;BME280;46665;51.558;-0.448;2023-07-20T04:17:47;101120.75;;;13.13;100.00
60832;BME280;46665;51.558;-0.448;2023-07-20T04:20:12;101126.28;;;13.08;100.00
60832;BME280;46665;51.558;-0.448;2023-07-20T04:22:38;101127.69;;;13.00;100.00
60832;BME280;46665;51.558;-0.448;2023-07-20T04:25:04;101125.00;;;12.95;100.00
60832;BME280;46665;51.558;-0.448;2023-07-20T04:27:29;101123.41;;;12.94;100.00
60832;BME280;46665;51.558;-0.448;2023-07-20T04:29:55;101131.31;;;12.90;100.00
60832;BME280;46665;51.558;-0.448;2023-07-20T04:32:21;101132.13;;;12.91;100.00
60832;BME280;46665;51.558;-0.448;2023-07-20T04:34:46;101129.66;;;12.94;100.00
60832;BME280;46665;51.558;-0.448;2023-07-20T04:37:11;101121.72;;;12.98;100.00
60832;BME280;46665;51.558;-0.448;2023-07-20T04:39:37;101119.50;;;13.00;100.00
60832;BME280;46665;51.558;-0.448;2023-07-20T04:42:02;101124.94;;;13.05;100.00
60832;BME280;46665;51.558;-0.448;2023-07-20T04:44:28;101123.22;;;13.14;100.00
60832;BME280;46665;51.558;-0.448;2023-07-20T04:46:53;101123.22;;;13.14;100.00
60832;BME280;46665;51.558;-0.448;2023-07-20T04:49:19;101117.75;;;13.14;100.00
60832;BME280;46665;51.558;-0.448;2023-07-20T04:51:45;101112.03;;;13.11;100.00
60832;BME280;46665;51.558;-0.448;2023-07-20T04:54:10;101117.28;;;13.07;100.00
60832;BME280;46665;51.558;-0.448;2023-07-20T04:56:36;101120.09;;;12.97;100.00
60832;BME280;46665;51.558;-0.448;2023-07-20T04:59:01;101130.19;;;12.96;100.00
60832;BME280;46665;51.558;-0.448;2023-07-20T05:01:26;101126.63;;;12.96;100.00
60832;BME280;46665;51.558;-0.448;2023-07-20T05:03:52;101125.81;;;12.95;100.00
60832;BME280;46665;51.558;-0.448;2023-07-20T05:06:18;101123.84;;;13.01;100.00
60832;BME280;46665;51.558;-0.448;2023-07-20T05:08:43;101122.78;;;13.02;100.00
60832;BME280;46665;51.558;-0.448;2023-07-20T05:11:09;101126.59;;;13.01;100.00
60832;BME280;46665;51.558;-0.448;2023-07-20T05:13:35;101124.69;;;13.01;100.00
60832;BME280;46665;51.558;-0.448;2023-07-20T05:16:01;101128.19;;;13.07;100.00
60832;BME280;46665;51.558;-0.448;2023-07-20T05:18:26;101124.41;;;13.03;100.00
60832;BME280;46665;51.558;-0.448;2023-07-20T05:20:51;101126.81;;;13.10;100.00
60832;BME280;46665;51.558;-0.448;2023-07-20T05:23:18;101128.38;;;13.16;100.00
60832;BME280;46665;51.558;-0.448;2023-07-20T05:25:45;101122.91;;;13.16;100.00
60832;BME280;46665;51.558;-0.448;2023-07-20T05:28:10;101124.56;;;13.17;100.00
60832;BME280;46665;51.558;-0.448;2023-07-20T05:30:35;101129.19;;;13.16;100.00
60832;BME280;46665;51.558;-0.448;2023-07-20T05:33:01;101131.34;;;13.25;100.00
60832;BME280;46665;51.558;-0.448;2023-07-20T05:35:26;101132.88;;;13.36;100.00
60832;BME280;46665;51.558;-0.448;2023-07-20T05:37:52;101133.09;;;13.44;100.00
60832;BME280;46665;51.558;-0.448;2023-07-20T05:40:17;101128.59;;;13.54;100.00
60832;BME280;46665;51.558;-0.448;2023-07-20T05:42:47;101132.16;;;13.54;100.00
60832;BME280;46665;51.558;-0.448;2023-07-20T05:45:16;101129.41;;;13.54;100.00
60832;BME280;46665;51.558;-0.448;2023-07-20T05:47:42;101126.19;;;13.52;100.00
60832;BME280;46665;51.558;-0.448;2023-07-20T05:50:09;101127.81;;;13.53;100.00
60832;BME280;46665;51.558;-0.448;2023-07-20T05:52:34;101128.91;;;13.52;100.00
60832;BME280;46665;51.558;-0.448;2023-07-20T05:54:59;101122.91;;;13.50;100.00
60832;BME280;46665;51.558;-0.448;2023-07-20T05:57:25;101131.13;;;13.50;100.00
60832;BME280;46665;51.558;-0.448;2023-07-20T05:59:50;101129.41;;;13.54;100.00
60832;BME280;46665;51.558;-0.448;2023-07-20T06:02:16;101125.34;;;13.52;100.00
60832;BME280;46665;51.558;-0.448;2023-07-20T06:04:41;101131.66;;;13.52;100.00
60832;BME280;46665;51.558;-0.448;2023-07-20T06:07:07;101135.72;;;13.55;100.00
60832;BME280;46665;51.558;-0.448;2023-07-20T06:09:35;101136.22;;;13.57;100.00
60832;BME280;46665;51.558;-0.448;2023-07-20T06:12:01;101133.97;;;13.64;100.00
60832;BME280;46665;51.558;-0.448;2023-07-20T06:14:26;101144.03;;;13.69;100.00
60832;BME280;46665;51.558;-0.448;2023-07-20T06:16:52;101126.78;;;13.73;100.00
60832;BME280;46665;51.558;-0.448;2023-07-20T06:19:17;101137.59;;;13.83;100.00
60832;BME280;46665;51.558;-0.448;2023-07-20T06:21:43;101131.47;;;13.92;100.00
60832;BME280;46665;51.558;-0.448;2023-07-20T06:24:08;101134.47;;;13.95;100.00
60832;BME280;46665;51.558;-0.448;2023-07-20T06:26:34;101135.75;;;14.03;100.00
60832;BME280;46665;51.558;-0.448;2023-07-20T06:29:07;101129.91;;;14.09;100.00
60832;BME280;46665;51.558;-0.448;2023-07-20T06:31:35;101132.56;;;14.15;100.00
60832;BME280;46665;51.558;-0.448;2023-07-20T06:34:01;101141.84;;;14.19;98.78
60832;BME280;46665;51.558;-0.448;2023-07-20T06:36:26;101141.16;;;14.27;99.38
60832;BME280;46665;51.558;-0.448;2023-07-20T06:38:52;101140.56;;;14.30;99.15
60832;BME280;46665;51.558;-0.448;2023-07-20T06:41:18;101138.38;;;14.32;98.87
60832;BME280;46665;51.558;-0.448;2023-07-20T06:43:44;101142.63;;;14.43;99.21
60832;BME280;46665;51.558;-0.448;2023-07-20T06:46:09;101138.69;;;14.49;98.89
60832;BME280;46665;51.558;-0.448;2023-07-20T06:48:35;101140.81;;;14.52;97.13
60832;BME280;46665;51.558;-0.448;2023-07-20T06:51:00;101138.56;;;14.60;97.41
60832;BME280;46665;51.558;-0.448;2023-07-20T06:53:25;101140.41;;;14.64;96.82
60832;BME280;46665;51.558;-0.448;2023-07-20T06:55:51;101142.47;;;14.72;97.33
60832;BME280;46665;51.558;-0.448;2023-07-20T06:58:16;101149.22;;;14.80;97.03
60832;BME280;46665;51.558;-0.448;2023-07-20T07:00:43;101143.66;;;14.85;96.32
60832;BME280;46665;51.558;-0.448;2023-07-20T07:03:08;101146.84;;;14.92;96.04
60832;BME280;46665;51.558;-0.448;2023-07-20T07:05:37;101147.03;;;14.96;94.62
60832;BME280;46665;51.558;-0.448;2023-07-20T07:08:04;101144.53;;;15.00;95.46
60832;BME280;46665;51.558;-0.448;2023-07-20T07:10:29;101142.59;;;15.00;94.03
60832;BME280;46665;51.558;-0.448;2023-07-20T07:12:55;101154.81;;;15.08;93.36
60832;BME280;46665;51.558;-0.448;2023-07-20T07:15:21;101158.28;;;15.13;93.88
60832;BME280;46665;51.558;-0.448;2023-07-20T07:17:47;101158.50;;;15.17;94.00
60832;BME280;46665;51.558;-0.448;2023-07-20T07:20:13;101145.72;;;15.26;94.01
60832;BME280;46665;51.558;-0.448;2023-07-20T07:22:38;101150.84;;;15.33;93.86
60832;BME280;46665;51.558;-0.448;2023-07-20T07:25:04;101144.66;;;15.41;94.18
60832;BME280;46665;51.558;-0.448;2023-07-20T07:27:29;101145.88;;;15.49;93.73
60832;BME280;46665;51.558;-0.448;2023-07-20T07:29:55;101152.41;;;15.53;92.71
60832;BME280;46665;51.558;-0.448;2023-07-20T07:32:20;101146.84;;;15.58;92.23
60832;BME280;46665;51.558;-0.448;2023-07-20T07:34:46;101146.22;;;15.61;93.39
60832;BME280;46665;51.558;-0.448;2023-07-20T07:37:13;101149.38;;;15.68;92.39
60832;BME280;46665;51.558;-0.448;2023-07-20T07:39:39;101145.00;;;15.67;92.17
60832;BME280;46665;51.558;-0.448;2023-07-20T07:42:05;101147.09;;;15.75;91.72
60832;BME280;46665;51.558;-0.448;2023-07-20T07:44:31;101149.22;;;15.78;88.57
60832;BME280;46665;51.558;-0.448;2023-07-20T07:46:56;101148.81;;;15.85;89.02
60832;BME280;46665;51.558;-0.448;2023-07-20T07:49:21;101136.91;;;15.90;88.80
60832;BME280;46665;51.558;-0.448;2023-07-20T07:51:48;101140.59;;;15.99;89.82
60832;BME280;46665;51.558;-0.448;2023-07-20T07:54:14;101137.31;;;15.97;86.28
60832;BME280;46665;51.558;-0.448;2023-07-20T07:56:39;101145.97;;;16.04;86.68
60832;BME280;46665;51.558;-0.448;2023-07-20T07:59:06;101138.13;;;16.11;86.79
60832;BME280;46665;51.558;-0.448;2023-07-20T08:01:32;101143.19;;;16.18;86.65
60832;BME280;46665;51.558;-0.448;2023-07-20T08:03:58;101134.78;;;16.14;84.92
60832;BME280;46665;51.558;-0.448;2023-07-20T08:06:23;101128.06;;;16.20;85.93
60832;BME280;46665;51.558;-0.448;2023-07-20T08:08:49;101128.97;;;16.30;85.45
60832;BME280;46665;51.558;-0.448;2023-07-20T08:11:15;101133.41;;;16.39;84.24
60832;BME280;46665;51.558;-0.448;2023-07-20T08:13:40;101139.59;;;16.45;82.96
60832;BME280;46665;51.558;-0.448;2023-07-20T08:16:06;101135.53;;;16.42;82.59
60832;BME280;46665;51.558;-0.448;2023-07-20T08:18:32;101132.56;;;16.53;82.82
60832;BME280;46665;51.558;-0.448;2023-07-20T08:20:57;101135.72;;;16.60;81.58
60832;BME280;46665;51.558;-0.448;2023-07-20T08:23:23;101128.16;;;16.65;81.82
60832;BME280;46665;51.558;-0.448;2023-07-20T08:25:48;101125.00;;;16.72;80.22
60832;BME280;46665;51.558;-0.448;2023-07-20T08:28:15;101125.06;;;16.81;79.79
60832;BME280;46665;51.558;-0.448;2023-07-20T08:30:47;101123.03;;;16.86;79.77
60832;BME280;46665;51.558;-0.448;2023-07-20T08:33:14;101125.84;;;16.95;80.17
60832;BME280;46665;51.558;-0.448;2023-07-20T08:35:43;101130.59;;;17.03;78.11
60832;BME280;46665;51.558;-0.448;2023-07-20T08:38:08;101129.53;;;17.13;77.13
60832;BME280;46665;51.558;-0.448;2023-07-20T08:40:40;101128.09;;;17.16;75.73
60832;BME280;46665;51.558;-0.448;2023-07-20T08:43:05;101134.25;;;17.21;76.73
60832;BME280;46665;51.558;-0.448;2023-07-20T08:45:33;101132.34;;;17.22;75.12
60832;BME280;46665;51.558;-0.448;2023-07-20T08:48:01;101137.34;;;17.20;73.45
60832;BME280;46665;51.558;-0.448;2023-07-20T08:50:30;101133.16;;;17.22;73.49
60832;BME280;46665;51.558;-0.448;2023-07-20T08:52:57;101133.59;;;17.16;70.98
60832;BME280;46665;51.558;-0.448;2023-07-20T08:55:25;101135.53;;;17.15;71.62
60832;BME280;46665;51.558;-0.448;2023-07-20T08:57:53;101132.00;;;17.23;73.01
60832;BME280;46665;51.558;-0.448;2023-07-20T09:00:20;101137.06;;;17.30;71.67
60832;BME280;46665;51.558;-0.448;2023-07-20T09:02:49;101128.38;;;17.37;72.20
60832;BME280;46665;51.558;-0.448;2023-07-20T09:05:15;101124.66;;;17.41;72.41
60832;BME280;46665;51.558;-0.448;2023-07-20T09:07:41;101127.94;;;17.52;74.76
60832;BME280;46665;51.558;-0.448;2023-07-20T09:10:07;101129.25;;;17.54;72.01
60832;BME280;46665;51.558;-0.448;2023-07-20T09:12:40;101125.53;;;17.50;69.48
60832;BME280;46665;51.558;-0.448;2023-07-20T09:15:06;101129.91;;;17.51;70.51
60832;BME280;46665;51.558;-0.448;2023-07-20T09:17:32;101128.28;;;17.50;69.64
60832;BME280;46665;51.558;-0.448;2023-07-20T09:19:58;101122.66;;;17.55;71.85
60832;BME280;46665;51.558;-0.448;2023-07-20T09:22:30;101125.13;;;17.66;71.75
60832;BME280;46665;51.558;-0.448;2023-07-20T09:24:57;101135.22;;;17.79;71.03
60832;BME280;46665;51.558;-0.448;2023-07-20T09:27:34;101125.22;;;17.83;69.88
60832;BME280;46665;51.558;-0.448;2023-07-20T09:30:01;101117.19;;;17.95;69.58
60832;BME280;46665;51.558;-0.448;2023-07-20T09:32:27;101118.78;;;18.05;68.66
60832;BME280;46665;51.558;-0.448;2023-07-20T09:34:52;101118.66;;;18.10;66.52
60832;BME280;46665;51.558;-0.448;2023-07-20T09:37:22;101113.31;;;18.14;67.61
60832;BME280;46665;51.558;-0.448;2023-07-20T09:39:47;101118.69;;;18.19;67.43
60832;BME280;46665;51.558;-0.448;2023-07-20T09:42:15;101123.03;;;18.20;65.49
60832;BME280;46665;51.558;-0.448;2023-07-20T09:44:43;101112.19;;;18.15;64.13
60832;BME280;46665;51.558;-0.448;2023-07-20T09:47:09;101118.38;;;18.21;63.20
60832;BME280;46665;51.558;-0.448;2023-07-20T09:49:39;101113.34;;;18.31;65.86
60832;BME280;46665;51.558;-0.448;2023-07-20T09:52:08;101114.66;;;18.42;62.82
60832;BME280;46665;51.558;-0.448;2023-07-20T09:54:37;101110.78;;;18.44;62.97
60832;BME280;46665;51.558;-0.448;2023-07-20T09:57:03;101106.22;;;18.48;64.06
60832;BME280;46665;51.558;-0.448;2023-07-20T09:59:32;101101.88;;;18.64;60.55
60832;BME280;46665;51.558;-0.448;2023-07-20T10:01:58;101105.56;;;18.51;60.15
60832;BME280;46665;51.558;-0.448;2023-07-20T10:04:26;101109.34;;;18.63;60.73
60832;BME280;46665;51.558;-0.448;2023-07-20T10:06:55;101106.72;;;18.67;62.60
60832;BME280;46665;51.558;-0.448;2023-07-20T10:09:22;101107.25;;;18.78;61.99
60832;BME280;46665;51.558;-0.448;2023-07-20T10:11:53;101110.00;;;18.87;60.15
60832;BME280;46665;51.558;-0.448;2023-07-20T10:14:20;101098.47;;;18.93;60.81
60832;BME280;46665;51.558;-0.448;2023-07-20T10:16:55;101098.28;;;18.98;61.11
60832;BME280;46665;51.558;-0.448;2023-07-20T10:19:26;101102.53;;;18.87;62.16
60832;BME280;46665;51.558;-0.448;2023-07-20T10:22:00;101102.06;;;18.76;61.39
60832;BME280;46665;51.558;-0.448;2023-07-20T10:24:31;101098.13;;;18.60;63.20
60832;BME280;46665;51.558;-0.448;2023-07-20T10:27:00;101091.31;;;18.40;63.46
60832;BME280;46665;51.558;-0.448;2023-07-20T10:29:26;101092.13;;;18.40;63.27
60832;BME280;46665;51.558;-0.448;2023-07-20T10:31:54;101098.63;;;18.45;62.18
60832;BME280;46665;51.558;-0.448;2023-07-20T10:34:21;101094.41;;;18.47;60.42
60832;BME280;46665;51.558;-0.448;2023-07-20T10:36:47;101097.16;;;18.47;60.08
60832;BME280;46665;51.558;-0.448;2023-07-20T10:39:24;101087.13;;;18.51;61.63
60832;BME280;46665;51.558;-0.448;2023-07-20T10:42:03;101088.41;;;18.71;60.12
60832;BME280;46665;51.558;-0.448;2023-07-20T10:44:30;101087.13;;;18.86;58.85
60832;BME280;46665;51.558;-0.448;2023-07-20T10:47:02;101095.53;;;19.07;59.48
60832;BME280;46665;51.558;-0.448;2023-07-20T10:49:28;101094.22;;;19.22;55.57
60832;BME280;46665;51.558;-0.448;2023-07-20T10:51:58;101089.34;;;19.10;53.70
60832;BME280;46665;51.558;-0.448;2023-07-20T10:56:55;101086.03;;;19.34;53.36
60832;BME280;46665;51.558;-0.448;2023-07-20T11:01:56;101082.09;;;19.44;51.09
60832;BME280;46665;51.558;-0.448;2023-07-20T11:04:51;101081.63;;;19.42;51.84
60832;BME280;46665;51.558;-0.448;2023-07-20T11:07:20;101086.13;;;19.55;53.06
60832;BME280;46665;51.558;-0.448;2023-07-20T11:10:15;101073.75;;;19.61;52.37
60832;BME280;46665;51.558;-0.448;2023-07-20T11:12:41;101074.09;;;19.60;51.85
60832;BME280;46665;51.558;-0.448;2023-07-20T11:15:07;101075.38;;;19.71;52.09
60832;BME280;46665;51.558;-0.448;2023-07-20T11:17:33;101081.38;;;19.73;49.77
60832;BME280;46665;51.558;-0.448;2023-07-20T11:20:00;101079.53;;;19.86;51.28
60832;BME280;46665;51.558;-0.448;2023-07-20T11:22:27;101072.63;;;20.01;50.05
60832;BME280;46665;51.558;-0.448;2023-07-20T11:24:55;101068.31;;;20.12;47.15
60832;BME280;46665;51.558;-0.448;2023-07-20T11:27:21;101074.44;;;20.18;46.80
60832;BME280;46665;51.558;-0.448;2023-07-20T11:29:49;101080.13;;;20.21;45.85
60832;BME280;46665;51.558;-0.448;2023-07-20T11:32:25;101067.97;;;20.34;45.62
60832;BME280;46665;51.558;-0.448;2023-07-20T11:34:50;101065.63;;;20.24;45.94
60832;BME280;46665;51.558;-0.448;2023-07-20T11:37:17;101069.38;;;20.41;48.21
60832;BME280;46665;51.558;-0.448;2023-07-20T11:39:43;101068.31;;;20.33;49.60
60832;BME280;46665;51.558;-0.448;2023-07-20T11:42:08;101070.88;;;20.17;49.39
60832;BME280;46665;51.558;-0.448;2023-07-20T11:44:34;101069.78;;;19.80;50.27
60832;BME280;46665;51.558;-0.448;2023-07-20T11:47:10;101072.13;;;19.69;50.98
60832;BME280;46665;51.558;-0.448;2023-07-20T11:49:38;101060.88;;;19.83;52.72
60832;BME280;46665;51.558;-0.448;2023-07-20T11:52:06;101057.16;;;20.00;52.02
60832;BME280;46665;51.558;-0.448;2023-07-20T11:54:33;101060.72;;;20.00;48.64
60832;BME280;46665;51.558;-0.448;2023-07-20T11:57:02;101054.69;;;20.07;48.58
60832;BME280;46665;51.558;-0.448;2023-07-20T11:59:28;101051.13;;;20.27;47.65
60832;BME280;46665;51.558;-0.448;2023-07-20T12:01:53;101046.72;;;20.56;49.38
60832;BME280;46665;51.558;-0.448;2023-07-20T12:04:19;101046.09;;;20.71;47.53
60832;BME280;46665;51.558;-0.448;2023-07-20T12:06:47;101043.03;;;20.97;46.38
60832;BME280;46665;51.558;-0.448;2023-07-20T12:09:14;101043.31;;;21.17;46.83
60832;BME280;46665;51.558;-0.448;2023-07-20T12:11:43;101040.22;;;21.31;46.75
60832;BME280;46665;51.558;-0.448;2023-07-20T12:14:09;101043.53;;;21.12;45.42
60832;BME280;46665;51.558;-0.448;2023-07-20T12:16:36;101044.16;;;20.84;44.99
60832;BME280;46665;51.558;-0.448;2023-07-20T12:21:35;101038.59;;;20.72;48.24
60832;BME280;46665;51.558;-0.448;2023-07-20T12:24:06;101042.16;;;20.72;48.55
60832;BME280;46665;51.558;-0.448;2023-07-20T12:26:33;101039.72;;;20.71;46.80
60832;BME280;46665;51.558;-0.448;2023-07-20T12:28:59;101047.78;;;20.64;47.08
60832;BME280;46665;51.558;-0.448;2023-07-20T12:31:25;101034.63;;;20.61;47.23
60832;BME280;46665;51.558;-0.448;2023-07-20T12:33:52;101037.16;;;20.66;48.30
60832;BME280;46665;51.558;-0.448;2023-07-20T12:36:18;101039.28;;;20.69;47.44
60832;BME280;46665;51.558;-0.448;2023-07-20T12:38:44;101028.44;;;20.64;47.98
60832;BME280;46665;51.558;-0.448;2023-07-20T12:41:11;101023.09;;;20.59;48.71
60832;BME280;46665;51.558;-0.448;2023-07-20T12:43:43;101034.28;;;20.62;46.20
60832;BME280;46665;51.558;-0.448;2023-07-20T12:46:10;101024.19;;;20.78;46.89
60832;BME280;46665;51.558;-0.448;2023-07-20T12:48:37;101016.25;;;20.77;45.24
60832;BME280;46665;51.558;-0.448;2023-07-20T12:51:03;101018.00;;;20.94;43.98